sensor_id;sensor_type;location;lat;lon;timestamp;temperature;humidity
38090;DHT22;23904;52.322;10.232;2023-07-31T00:02:17;17.10;99.90
38090;DHT22;23904;52.322;10.232;2023-07-31T00:04:42;17.10;99.90
38090;DHT22;23904;52.322;10.232;2023-07-31T00:07:08;17.00;99.90
38090;DHT22;23904;52.322;10.232;2023-07-31T00:09:33;17.10;99.90
38090;DHT22;23904;52.322;10.232;2023-07-31T00:11:59;17.20;99.90
38090;DHT22;23904;52.322;10.232;2023-07-31T00:14:25;17.20;99.90
38090;DHT22;23904;52.322;10.232;2023-07-31T00:16:50;17.20;99.90
38090;DHT22;23904;52.322;10.232;2023-07-31T00:19:16;17.30;99.90
38090;DHT22;23904;52.322;10.232;2023-07-31T00:21:41;17.30;99.90
38090;DHT22;23904;52.322;10.232;2023-07-31T00:24:07;17.30;99.90
38090;DHT22;23904;52.322;10.232;2023-07-31T00:26:33;17.30;99.90
38090;DHT22;23904;52.322;10.232;2023-07-31T00:28:58;17.30;99.90
38090;DHT22;23904;52.322;10.232;2023-07-31T00:31:24;17.30;99.90
38090;DHT22;23904;52.322;10.232;2023-07-31T00:33:49;17.30;99.90
38090;DHT22;23904;52.322;10.232;2023-07-31T00:36:15;17.30;99.90
38090;DHT22;23904;52.322;10.232;2023-07-31T00:38:40;17.40;99.90
38090;DHT22;23904;52.322;10.232;2023-07-31T00:41:06;17.30;99.90
38090;DHT22;23904;52.322;10.232;2023-07-31T00:43:31;17.30;99.90
38090;DHT22;23904;52.322;10.232;2023-07-31T00:45:57;17.30;99.90
38090;DHT22;23904;52.322;10.232;2023-07-31T00:48:23;17.30;99.90
38090;DHT22;23904;52.322;10.232;2023-07-31T00:50:49;17.30;99.90
38090;DHT22;23904;52.322;10.232;2023-07-31T00:53:15;17.30;99.90
38090;DHT22;23904;52.322;10.232;2023-07-31T00:55:41;17.30;99.90
38090;DHT22;23904;52.322;10.232;2023-07-31T00:58:08;17.30;99.90
38090;DHT22;23904;52.322;10.232;2023-07-31T01:00:33;17.30;99.90
38090;DHT22;23904;52.322;10.232;2023-07-31T01:02:59;17.20;99.90
38090;DHT22;23904;52.322;10.232;2023-07-31T01:05:43;17.30;99.90
38090;DHT22;23904;52.322;10.232;2023-07-31T01:13:41;17.30;99.90
38090;DHT22;23904;52.322;10.232;2023-07-31T01:16:07;17.20;99.90
38090;DHT22;23904;52.322;10.232;2023-07-31T01:18:33;17.20;99.90
38090;DHT22;23904;52.322;10.232;2023-07-31T01:21:13;17.20;99.90
38090;DHT22;23904;52.322;10.232;2023-07-31T01:27:12;17.10;99.90
38090;DHT22;23904;52.322;10.232;2023-07-31T01:30:05;17.10;99.90
38090;DHT22;23904;52.322;10.232;2023-07-31T01:32:38;17.10;99.90
38090;DHT22;23904;52.322;10.232;2023-07-31T01:35:05;17.10;99.90
38090;DHT22;23904;52.322;10.232;2023-07-31T01:37:31;17.10;99.90
38090;DHT22;23904;52.322;10.232;2023-07-31T01:39:57;17.00;99.90
38090;DHT22;23904;52.322;10.232;2023-07-31T01:42:23;17.00;99.90
38090;DHT22;23904;52.322;10.232;2023-07-31T01:44:48;16.90;99.90
38090;DHT22;23904;52.322;10.232;2023-07-31T01:47:14;16.80;99.90
38090;DHT22;23904;52.322;10.232;2023-07-31T01:49:40;16.80;99.90
38090;DHT22;23904;52.322;10.232;2023-07-31T01:52:05;16.70;99.90
38090;DHT22;23904;52.322;10.232;2023-07-31T01:54:31;16.60;99.90
38090;DHT22;23904;52.322;10.232;2023-07-31T01:56:58;16.60;99.90
38090;DHT22;23904;52.322;10.232;2023-07-31T01:59:23;16.40;99.90
38090;DHT22;23904;52.322;10.232;2023-07-31T02:01:49;16.40;99.90
38090;DHT22;23904;52.322;10.232;2023-07-31T02:04:14;16.40;99.90
38090;DHT22;23904;52.322;10.232;2023-07-31T02:06:40;16.40;99.90
38090;DHT22;23904;52.322;10.232;2023-07-31T02:09:05;16.40;99.90
38090;DHT22;23904;52.322;10.232;2023-07-31T02:11:32;16.40;99.90
38090;DHT22;23904;52.322;10.232;2023-07-31T02:13:57;16.30;99.90
38090;DHT22;23904;52.322;10.232;2023-07-31T02:16:23;16.40;99.90
38090;DHT22;23904;52.322;10.232;2023-07-31T02:18:48;16.30;99.90
38090;DHT22;23904;52.322;10.232;2023-07-31T02:21:14;16.40;99.90
38090;DHT22;23904;52.322;10.232;2023-07-31T02:23:40;16.40;99.90
38090;DHT22;23904;52.322;10.232;2023-07-31T02:26:05;16.50;99.90
38090;DHT22;23904;52.322;10.232;2023-07-31T02:28:31;16.40;99.90
38090;DHT22;23904;52.322;10.232;2023-07-31T02:30:56;16.40;99.90
38090;DHT22;23904;52.322;10.232;2023-07-31T02:33:22;16.30;99.90
38090;DHT22;23904;52.322;10.232;2023-07-31T02:35:47;16.30;99.90
38090;DHT22;23904;52.322;10.232;2023-07-31T02:38:13;16.30;99.90
38090;DHT22;23904;52.322;10.232;2023-07-31T02:40:41;16.30;99.90
38090;DHT22;23904;52.322;10.232;2023-07-31T02:43:08;16.40;99.90
38090;DHT22;23904;52.322;10.232;2023-07-31T02:45:34;16.40;99.90
38090;DHT22;23904;52.322;10.232;2023-07-31T02:47:59;16.40;99.90
38090;DHT22;23904;52.322;10.232;2023-07-31T02:50:25;16.40;99.90
38090;DHT22;23904;52.322;10.232;2023-07-31T02:52:51;16.40;99.90
38090;DHT22;23904;52.322;10.232;2023-07-31T02:55:16;16.40;99.90
38090;DHT22;23904;52.322;10.232;2023-07-31T02:57:42;16.40;99.90
38090;DHT22;23904;52.322;10.232;2023-07-31T03:00:07;16.40;99.90
38090;DHT22;23904;52.322;10.232;2023-07-31T03:02:34;16.40;99.90
38090;DHT22;23904;52.322;10.232;2023-07-31T03:05:00;16.50;99.90
38090;DHT22;23904;52.322;10.232;2023-07-31T03:07:26;16.50;99.90
38090;DHT22;23904;52.322;10.232;2023-07-31T03:09:52;16.40;99.90
38090;DHT22;23904;52.322;10.232;2023-07-31T03:12:17;16.50;99.90
38090;DHT22;23904;52.322;10.232;2023-07-31T03:14:43;16.50;99.90
38090;DHT22;23904;52.322;10.232;2023-07-31T03:17:08;16.50;99.90
38090;DHT22;23904;52.322;10.232;2023-07-31T03:19:34;16.50;99.90
38090;DHT22;23904;52.322;10.232;2023-07-31T03:21:59;16.50;99.90
38090;DHT22;23904;52.322;10.232;2023-07-31T03:24:26;16.50;99.90
38090;DHT22;23904;52.322;10.232;2023-07-31T03:26:51;16.50;99.90
38090;DHT22;23904;52.322;10.232;2023-07-31T03:29:17;16.40;99.90
38090;DHT22;23904;52.322;10.232;2023-07-31T03:31:42;16.40;99.90
38090;DHT22;23904;52.322;10.232;2023-07-31T03:34:08;16.40;99.90
38090;DHT22;23904;52.322;10.232;2023-07-31T03:36:34;16.40;99.90
38090;DHT22;23904;52.322;10.232;2023-07-31T03:38:59;16.40;99.90
38090;DHT22;23904;52.322;10.232;2023-07-31T03:41:25;16.40;99.90
38090;DHT22;23904;52.322;10.232;2023-07-31T03:43:51;16.50;99.90
38090;DHT22;23904;52.322;10.232;2023-07-31T03:46:22;16.50;99.90
38090;DHT22;23904;52.322;10.232;2023-07-31T03:48:48;16.40;99.90
38090;DHT22;23904;52.322;10.232;2023-07-31T03:51:14;16.40;99.90
38090;DHT22;23904;52.322;10.232;2023-07-31T03:53:39;16.40;99.90
38090;DHT22;23904;52.322;10.232;2023-07-31T03:56:05;16.40;99.90
38090;DHT22;23904;52.322;10.232;2023-07-31T03:58:31;16.40;99.90
38090;DHT22;23904;52.322;10.232;2023-07-31T04:00:56;16.40;99.90
38090;DHT22;23904;52.322;10.232;2023-07-31T04:03:22;16.40;99.90
38090;DHT22;23904;52.322;10.232;2023-07-31T04:05:47;16.40;99.90
38090;DHT22;23904;52.322;10.232;2023-07-31T04:08:13;16.40;99.90
38090;DHT22;23904;52.322;10.232;2023-07-31T04:10:38;16.40;99.90
38090;DHT22;23904;52.322;10.232;2023-07-31T04:13:04;16.40;99.90
38090;DHT22;23904;52.322;10.232;2023-07-31T04:15:29;16.40;99.90
38090;DHT22;23904;52.322;10.232;2023-07-31T04:17:55;16.40;99.90
38090;DHT22;23904;52.322;10.232;2023-07-31T04:20:21;16.40;99.90
38090;DHT22;23904;52.322;10.232;2023-07-31T04:22:46;16.40;99.90
38090;DHT22;23904;52.322;10.232;2023-07-31T04:25:12;16.50;99.90
38090;DHT22;23904;52.322;10.232;2023-07-31T04:27:37;16.30;99.90
38090;DHT22;23904;52.322;10.232;2023-07-31T04:30:04;16.30;99.90
38090;DHT22;23904;52.322;10.232;2023-07-31T04:32:30;16.30;99.90
38090;DHT22;23904;52.322;10.232;2023-07-31T04:34:56;16.30;99.90
38090;DHT22;23904;52.322;10.232;2023-07-31T04:37:21;16.30;99.90
38090;DHT22;23904;52.322;10.232;2023-07-31T04:39:47;16.30;99.90
38090;DHT22;23904;52.322;10.232;2023-07-31T04:42:13;16.30;99.90
38090;DHT22;23904;52.322;10.232;2023-07-31T04:44:38;16.30;99.90
38090;DHT22;23904;52.322;10.232;2023-07-31T04:47:04;16.20;99.90
38090;DHT22;23904;52.322;10.232;2023-07-31T04:49:29;16.20;99.90
38090;DHT22;23904;52.322;10.232;2023-07-31T04:51:55;16.20;99.90
38090;DHT22;23904;52.322;10.232;2023-07-31T04:54:21;16.20;99.90
38090;DHT22;23904;52.322;10.232;2023-07-31T04:56:46;16.20;99.90
38090;DHT22;23904;52.322;10.232;2023-07-31T04:59:12;16.20;99.90
38090;DHT22;23904;52.322;10.232;2023-07-31T05:01:38;16.10;99.90
38090;DHT22;23904;52.322;10.232;2023-07-31T05:04:03;16.10;99.90
38090;DHT22;23904;52.322;10.232;2023-07-31T05:06:29;16.10;99.90
38090;DHT22;23904;52.322;10.232;2023-07-31T05:08:55;16.10;99.90
38090;DHT22;23904;52.322;10.232;2023-07-31T05:11:20;16.10;99.90
38090;DHT22;23904;52.322;10.232;2023-07-31T05:13:46;16.10;99.90
38090;DHT22;23904;52.322;10.232;2023-07-31T05:16:11;16.10;99.90
38090;DHT22;23904;52.322;10.232;2023-07-31T05:18:37;16.10;99.90
38090;DHT22;23904;52.322;10.232;2023-07-31T05:21:02;16.00;99.90
38090;DHT22;23904;52.322;10.232;2023-07-31T05:23:28;15.90;99.90
38090;DHT22;23904;52.322;10.232;2023-07-31T05:25:54;15.90;99.90
38090;DHT22;23904;52.322;10.232;2023-07-31T05:28:21;15.90;99.90
38090;DHT22;23904;52.322;10.232;2023-07-31T05:30:47;15.80;99.90
38090;DHT22;23904;52.322;10.232;2023-07-31T05:33:12;15.80;99.90
38090;DHT22;23904;52.322;10.232;2023-07-31T05:35:38;15.70;99.90
38090;DHT22;23904;52.322;10.232;2023-07-31T05:38:04;15.70;99.90
38090;DHT22;23904;52.322;10.232;2023-07-31T05:40:32;15.60;99.90
38090;DHT22;23904;52.322;10.232;2023-07-31T05:42:58;15.60;99.90
38090;DHT22;23904;52.322;10.232;2023-07-31T05:45:25;15.70;99.90
38090;DHT22;23904;52.322;10.232;2023-07-31T05:47:50;15.70;99.90
38090;DHT22;23904;52.322;10.232;2023-07-31T05:50:16;15.60;99.90
38090;DHT22;23904;52.322;10.232;2023-07-31T05:52:41;15.60;99.90
38090;DHT22;23904;52.322;10.232;2023-07-31T05:55:08;15.60;99.90
38090;DHT22;23904;52.322;10.232;2023-07-31T05:57:33;15.50;99.90
38090;DHT22;23904;52.322;10.232;2023-07-31T05:59:59;15.50;99.90
38090;DHT22;23904;52.322;10.232;2023-07-31T06:02:24;15.60;99.90
38090;DHT22;23904;52.322;10.232;2023-07-31T06:04:50;15.60;99.90
38090;DHT22;23904;52.322;10.232;2023-07-31T06:07:16;15.70;99.90
38090;DHT22;23904;52.322;10.232;2023-07-31T06:09:41;15.70;99.90
38090;DHT22;23904;52.322;10.232;2023-07-31T06:12:07;15.70;99.90
38090;DHT22;23904;52.322;10.232;2023-07-31T06:14:34;15.80;99.90
38090;DHT22;23904;52.322;10.232;2023-07-31T06:16:59;15.80;99.90
38090;DHT22;23904;52.322;10.232;2023-07-31T06:19:25;15.90;99.90
38090;DHT22;23904;52.322;10.232;2023-07-31T06:21:50;15.90;99.90
38090;DHT22;23904;52.322;10.232;2023-07-31T06:24:16;16.00;99.90
38090;DHT22;23904;52.322;10.232;2023-07-31T06:26:44;16.00;99.90
38090;DHT22;23904;52.322;10.232;2023-07-31T06:29:10;16.10;99.90
38090;DHT22;23904;52.322;10.232;2023-07-31T06:31:35;16.10;99.90
38090;DHT22;23904;52.322;10.232;2023-07-31T06:34:01;16.10;99.90
38090;DHT22;23904;52.322;10.232;2023-07-31T06:36:26;16.10;99.90
38090;DHT22;23904;52.322;10.232;2023-07-31T06:38:52;16.20;99.90
38090;DHT22;23904;52.322;10.232;2023-07-31T06:41:17;16.20;99.90
38090;DHT22;23904;52.322;10.232;2023-07-31T06:43:43;16.20;99.90
38090;DHT22;23904;52.322;10.232;2023-07-31T06:46:09;16.30;99.90
38090;DHT22;23904;52.322;10.232;2023-07-31T06:48:35;16.30;99.90
38090;DHT22;23904;52.322;10.232;2023-07-31T06:51:02;16.30;99.90
38090;DHT22;23904;52.322;10.232;2023-07-31T06:53:28;16.30;99.90
38090;DHT22;23904;52.322;10.232;2023-07-31T06:55:54;16.30;99.90
38090;DHT22;23904;52.322;10.232;2023-07-31T06:58:20;16.20;99.90
38090;DHT22;23904;52.322;10.232;2023-07-31T07:00:45;16.20;99.90
38090;DHT22;23904;52.322;10.232;2023-07-31T07:03:11;16.20;99.90
38090;DHT22;23904;52.322;10.232;2023-07-31T07:05:37;16.20;99.90
38090;DHT22;23904;52.322;10.232;2023-07-31T07:08:02;16.20;99.90
38090;DHT22;23904;52.322;10.232;2023-07-31T07:10:28;16.20;99.90
38090;DHT22;23904;52.322;10.232;2023-07-31T07:12:54;16.10;99.90
38090;DHT22;23904;52.322;10.232;2023-07-31T07:15:20;16.10;99.90
38090;DHT22;23904;52.322;10.232;2023-07-31T07:17:46;16.20;99.90
38090;DHT22;23904;52.322;10.232;2023-07-31T07:20:12;16.10;99.90
38090;DHT22;23904;52.322;10.232;2023-07-31T07:22:37;16.20;99.90
38090;DHT22;23904;52.322;10.232;2023-07-31T07:25:04;16.10;99.90
38090;DHT22;23904;52.322;10.232;2023-07-31T07:27:30;16.10;99.90
38090;DHT22;23904;52.322;10.232;2023-07-31T07:29:56;16.10;99.90
38090;DHT22;23904;52.322;10.232;2023-07-31T07:32:21;16.20;99.90
38090;DHT22;23904;52.322;10.232;2023-07-31T07:34:48;16.20;99.90
38090;DHT22;23904;52.322;10.232;2023-07-31T07:37:14;16.20;99.90
38090;DHT22;23904;52.322;10.232;2023-07-31T07:39:40;16.10;99.90
38090;DHT22;23904;52.322;10.232;2023-07-31T07:42:06;16.10;99.90
38090;DHT22;23904;52.322;10.232;2023-07-31T07:44:32;16.20;99.90
38090;DHT22;23904;52.322;10.232;2023-07-31T07:46:57;16.20;99.90
38090;DHT22;23904;52.322;10.232;2023-07-31T07:49:23;16.20;99.90
38090;DHT22;23904;52.322;10.232;2023-07-31T07:51:49;16.30;99.90
38090;DHT22;23904;52.322;10.232;2023-07-31T07:54:15;16.40;99.90
38090;DHT22;23904;52.322;10.232;2023-07-31T07:56:46;16.40;99.90
38090;DHT22;23904;52.322;10.232;2023-07-31T07:59:11;16.40;99.90
38090;DHT22;23904;52.322;10.232;2023-07-31T08:01:37;16.60;99.90
38090;DHT22;23904;52.322;10.232;2023-07-31T08:04:03;16.80;99.90
38090;DHT22;23904;52.322;10.232;2023-07-31T08:06:28;16.90;99.90
38090;DHT22;23904;52.322;10.232;2023-07-31T08:08:55;17.10;99.90
38090;DHT22;23904;52.322;10.232;2023-07-31T08:11:20;17.30;99.90
38090;DHT22;23904;52.322;10.232;2023-07-31T08:13:47;17.10;99.90
38090;DHT22;23904;52.322;10.232;2023-07-31T08:16:12;17.20;99.90
38090;DHT22;23904;52.322;10.232;2023-07-31T08:18:38;17.20;99.90
38090;DHT22;23904;52.322;10.232;2023-07-31T08:21:05;17.30;99.90
38090;DHT22;23904;52.322;10.232;2023-07-31T08:23:31;17.30;99.90
38090;DHT22;23904;52.322;10.232;2023-07-31T08:25:56;17.30;99.90
38090;DHT22;23904;52.322;10.232;2023-07-31T08:28:22;17.30;99.90
38090;DHT22;23904;52.322;10.232;2023-07-31T08:30:48;17.20;99.90
38090;DHT22;23904;52.322;10.232;2023-07-31T08:33:13;17.30;99.90
38090;DHT22;23904;52.322;10.232;2023-07-31T08:35:39;17.20;99.90
38090;DHT22;23904;52.322;10.232;2023-07-31T08:38:04;17.10;99.90
38090;DHT22;23904;52.322;10.232;2023-07-31T08:40:30;17.00;99.90
38090;DHT22;23904;52.322;10.232;2023-07-31T08:42:56;16.90;99.90
38090;DHT22;23904;52.322;10.232;2023-07-31T08:45:22;16.90;99.90
38090;DHT22;23904;52.322;10.232;2023-07-31T08:47:50;17.00;99.90
38090;DHT22;23904;52.322;10.232;2023-07-31T08:50:19;17.00;99.90
38090;DHT22;23904;52.322;10.232;2023-07-31T08:52:50;17.00;99.90
38090;DHT22;23904;52.322;10.232;2023-07-31T08:55:17;16.90;99.90
38090;DHT22;23904;52.322;10.232;2023-07-31T08:57:48;16.90;99.90
38090;DHT22;23904;52.322;10.232;2023-07-31T09:00:16;16.90;99.90
38090;DHT22;23904;52.322;10.232;2023-07-31T09:02:46;16.90;99.90
38090;DHT22;23904;52.322;10.232;2023-07-31T09:05:14;16.90;99.90
38090;DHT22;23904;52.322;10.232;2023-07-31T09:07:40;16.90;99.90
38090;DHT22;23904;52.322;10.232;2023-07-31T09:10:08;16.80;99.90
38090;DHT22;23904;52.322;10.232;2023-07-31T09:12:34;16.90;99.90
38090;DHT22;23904;52.322;10.232;2023-07-31T09:15:00;16.90;99.90
38090;DHT22;23904;52.322;10.232;2023-07-31T09:17:34;16.90;99.90
38090;DHT22;23904;52.322;10.232;2023-07-31T09:20:21;16.90;99.90
38090;DHT22;23904;52.322;10.232;2023-07-31T09:22:48;16.80;99.90
38090;DHT22;23904;52.322;10.232;2023-07-31T09:27:48;17.00;99.90
38090;DHT22;23904;52.322;10.232;2023-07-31T09:30:14;17.10;99.90
38090;DHT22;23904;52.322;10.232;2023-07-31T09:32:42;17.20;99.90
38090;DHT22;23904;52.322;10.232;2023-07-31T09:35:28;17.30;99.90
38090;DHT22;23904;52.322;10.232;2023-07-31T09:38:00;17.30;99.90
38090;DHT22;23904;52.322;10.232;2023-07-31T09:40:37;17.20;99.90
38090;DHT22;23904;52.322;10.232;2023-07-31T09:43:07;17.20;99.90
38090;DHT22;23904;52.322;10.232;2023-07-31T09:45:39;17.20;99.90
38090;DHT22;23904;52.322;10.232;2023-07-31T09:48:15;17.20;99.90
38090;DHT22;23904;52.322;10.232;2023-07-31T09:50:47;17.20;99.90
38090;DHT22;23904;52.322;10.232;2023-07-31T09:53:14;17.30;99.90
38090;DHT22;23904;52.322;10.232;2023-07-31T09:55:41;17.30;99.90
38090;DHT22;23904;52.322;10.232;2023-07-31T09:58:12;17.30;99.90
38090;DHT22;23904;52.322;10.232;2023-07-31T10:00:38;17.30;99.90
38090;DHT22;23904;52.322;10.232;2023-07-31T10:03:06;17.30;99.90
38090;DHT22;23904;52.322;10.232;2023-07-31T10:06:02;17.30;99.90
38090;DHT22;23904;52.322;10.232;2023-07-31T10:08:29;17.30;99.90
38090;DHT22;23904;52.322;10.232;2023-07-31T10:10:58;17.30;99.90
38090;DHT22;23904;52.322;10.232;2023-07-31T10:13:25;17.30;99.90
38090;DHT22;23904;52.322;10.232;2023-07-31T10:15:53;17.30;99.90
38090;DHT22;23904;52.322;10.232;2023-07-31T10:18:20;17.30;99.90
38090;DHT22;23904;52.322;10.232;2023-07-31T10:20:47;17.30;99.90
38090;DHT22;23904;52.322;10.232;2023-07-31T10:23:12;17.40;99.90
38090;DHT22;23904;52.322;10.232;2023-07-31T10:25:39;17.50;99.90
38090;DHT22;23904;52.322;10.232;2023-07-31T10:28:05;17.70;99.90
38090;DHT22;23904;52.322;10.232;2023-07-31T10:30:33;17.80;99.90
38090;DHT22;23904;52.322;10.232;2023-07-31T10:33:00;17.90;99.90
38090;DHT22;23904;52.322;10.232;2023-07-31T10:35:27;18.00;99.90
38090;DHT22;23904;52.322;10.232;2023-07-31T10:37:53;18.00;99.90
38090;DHT22;23904;52.322;10.232;2023-07-31T10:40:24;18.10;99.90
38090;DHT22;23904;52.322;10.232;2023-07-31T10:42:56;18.00;99.90
38090;DHT22;23904;52.322;10.232;2023-07-31T10:45:31;18.00;99.90
38090;DHT22;23904;52.322;10.232;2023-07-31T10:48:13;18.00;99.90
38090;DHT22;23904;52.322;10.232;2023-07-31T10:50:47;18.10;99.90
38090;DHT22;23904;52.322;10.232;2023-07-31T10:53:30;18.30;99.90
38090;DHT22;23904;52.322;10.232;2023-07-31T10:56:01;18.60;99.90
38090;DHT22;23904;52.322;10.232;2023-07-31T10:58:27;18.70;99.90
38090;DHT22;23904;52.322;10.232;2023-07-31T11:00:57;18.90;99.90
38090;DHT22;23904;52.322;10.232;2023-07-31T11:03:40;18.90;99.90
38090;DHT22;23904;52.322;10.232;2023-07-31T11:06:10;18.90;99.90
38090;DHT22;23904;52.322;10.232;2023-07-31T11:08:42;18.90;99.90
38090;DHT22;23904;52.322;10.232;2023-07-31T11:11:13;19.00;99.90
38090;DHT22;23904;52.322;10.232;2023-07-31T11:13:47;19.10;99.90
38090;DHT22;23904;52.322;10.232;2023-07-31T11:16:24;19.40;99.90
38090;DHT22;23904;52.322;10.232;2023-07-31T11:18:51;19.60;99.90
38090;DHT22;23904;52.322;10.232;2023-07-31T11:21:23;19.90;99.90
38090;DHT22;23904;52.322;10.232;2023-07-31T11:23:53;20.00;99.90
38090;DHT22;23904;52.322;10.232;2023-07-31T11:26:23;19.90;99.90
38090;DHT22;23904;52.322;10.232;2023-07-31T11:28:50;19.70;99.90
38090;DHT22;23904;52.322;10.232;2023-07-31T11:31:16;19.60;99.90
38090;DHT22;23904;52.322;10.232;2023-07-31T11:33:43;19.60;99.90
38090;DHT22;23904;52.322;10.232;2023-07-31T11:36:20;19.50;99.90
38090;DHT22;23904;52.322;10.232;2023-07-31T11:38:46;19.60;99.90
38090;DHT22;23904;52.322;10.232;2023-07-31T11:41:14;19.50;99.90
38090;DHT22;23904;52.322;10.232;2023-07-31T11:43:41;19.40;99.90
38090;DHT22;23904;52.322;10.232;2023-07-31T11:46:07;19.30;99.90
38090;DHT22;23904;52.322;10.232;2023-07-31T11:48:34;19.30;99.90
38090;DHT22;23904;52.322;10.232;2023-07-31T11:51:03;19.30;99.90
38090;DHT22;23904;52.322;10.232;2023-07-31T11:56:13;19.50;99.90
38090;DHT22;23904;52.322;10.232;2023-07-31T11:58:39;19.70;99.90
38090;DHT22;23904;52.322;10.232;2023-07-31T12:01:06;19.80;99.90
38090;DHT22;23904;52.322;10.232;2023-07-31T12:03:33;19.80;99.90
38090;DHT22;23904;52.322;10.232;2023-07-31T12:05:59;19.70;99.90
38090;DHT22;23904;52.322;10.232;2023-07-31T12:08:25;19.80;99.90
38090;DHT22;23904;52.322;10.232;2023-07-31T12:10:52;19.90;99.90
38090;DHT22;23904;52.322;10.232;2023-07-31T12:13:24;19.90;99.90
38090;DHT22;23904;52.322;10.232;2023-07-31T12:15:59;20.00;99.90
38090;DHT22;23904;52.322;10.232;2023-07-31T12:18:28;20.10;99.90
38090;DHT22;23904;52.322;10.232;2023-07-31T12:20:57;20.00;99.90
38090;DHT22;23904;52.322;10.232;2023-07-31T12:23:28;20.10;99.90
38090;DHT22;23904;52.322;10.232;2023-07-31T12:26:05;20.20;99.90
38090;DHT22;23904;52.322;10.232;2023-07-31T12:28:36;20.20;99.90
38090;DHT22;23904;52.322;10.232;2023-07-31T12:31:04;20.30;99.90
38090;DHT22;23904;52.322;10.232;2023-07-31T12:33:37;20.30;99.90
38090;DHT22;23904;52.322;10.232;2023-07-31T12:36:08;20.10;99.90
38090;DHT22;23904;52.322;10.232;2023-07-31T12:38:38;20.10;99.90
38090;DHT22;23904;52.322;10.232;2023-07-31T12:41:04;20.00;99.90
38090;DHT22;23904;52.322;10.232;2023-07-31T12:43:31;20.00;99.90
38090;DHT22;23904;52.322;10.232;2023-07-31T12:45:57;20.00;99.90
38090;DHT22;23904;52.322;10.232;2023-07-31T12:48:23;19.80;99.90
38090;DHT22;23904;52.322;10.232;2023-07-31T12:50:48;19.90;99.90
38090;DHT22;23904;52.322;10.232;2023-07-31T12:53:15;19.90;99.90
38090;DHT22;23904;52.322;10.232;2023-07-31T12:55:41;19.70;99.90
38090;DHT22;23904;52.322;10.232;2023-07-31T12:58:06;19.80;99.90
38090;DHT22;23904;52.322;10.232;2023-07-31T13:00:32;20.00;99.90
38090;DHT22;23904;52.322;10.232;2023-07-31T13:02:58;20.10;99.90
38090;DHT22;23904;52.322;10.232;2023-07-31T13:05:25;20.10;99.90
38090;DHT22;23904;52.322;10.232;2023-07-31T13:07:51;20.00;99.90
38090;DHT22;23904;52.322;10.232;2023-07-31T13:10:17;19.90;99.90
38090;DHT22;23904;52.322;10.232;2023-07-31T13:12:42;19.90;99.90
38090;DHT22;23904;52.322;10.232;2023-07-31T13:15:08;19.90;99.90
38090;DHT22;23904;52.322;10.232;2023-07-31T13:17:34;19.90;99.90
38090;DHT22;23904;52.322;10.232;2023-07-31T13:20:00;19.80;99.90
38090;DHT22;23904;52.322;10.232;2023-07-31T13:22:26;19.60;99.90
38090;DHT22;23904;52.322;10.232;2023-07-31T13:24:52;19.70;99.90
38090;DHT22;23904;52.322;10.232;2023-07-31T13:27:17;19.90;99.90
38090;DHT22;23904;52.322;10.232;2023-07-31T13:29:45;20.10;99.90
38090;DHT22;23904;52.322;10.232;2023-07-31T13:32:11;20.40;99.90
38090;DHT22;23904;52.322;10.232;2023-07-31T13:34:36;20.60;99.90
38090;DHT22;23904;52.322;10.232;2023-07-31T13:37:02;20.70;99.90
38090;DHT22;23904;52.322;10.232;2023-07-31T13:39:28;20.40;99.90
38090;DHT22;23904;52.322;10.232;2023-07-31T13:41:53;20.20;99.90
38090;DHT22;23904;52.322;10.232;2023-07-31T13:44:19;20.10;99.90
38090;DHT22;23904;52.322;10.232;2023-07-31T13:46:44;20.10;99.90
38090;DHT22;23904;52.322;10.232;2023-07-31T13:49:10;20.10;99.90
38090;DHT22;23904;52.322;10.232;2023-07-31T13:51:35;20.10;99.90
38090;DHT22;23904;52.322;10.232;2023-07-31T13:54:01;20.20;99.90
38090;DHT22;23904;52.322;10.232;2023-07-31T13:56:27;20.20;99.90
38090;DHT22;23904;52.322;10.232;2023-07-31T13:58:52;20.40;99.90
38090;DHT22;23904;52.322;10.232;2023-07-31T14:01:18;20.50;99.90
38090;DHT22;23904;52.322;10.232;2023-07-31T14:03:43;20.50;99.90
38090;DHT22;23904;52.322;10.232;2023-07-31T14:06:09;20.50;99.90
38090;DHT22;23904;52.322;10.232;2023-07-31T14:08:35;20.50;99.90
38090;DHT22;23904;52.322;10.232;2023-07-31T14:11:00;20.50;99.90
38090;DHT22;23904;52.322;10.232;2023-07-31T14:13:26;20.50;99.90
38090;DHT22;23904;52.322;10.232;2023-07-31T14:15:51;20.60;99.90
38090;DHT22;23904;52.322;10.232;2023-07-31T14:18:18;20.40;99.90
38090;DHT22;23904;52.322;10.232;2023-07-31T14:20:44;20.30;99.90
38090;DHT22;23904;52.322;10.232;2023-07-31T14:23:10;20.30;99.90
38090;DHT22;23904;52.322;10.232;2023-07-31T14:25:35;20.20;99.90
38090;DHT22;23904;52.322;10.232;2023-07-31T14:28:01;20.10;99.90
38090;DHT22;23904;52.322;10.232;2023-07-31T14:30:26;20.10;99.90
38090;DHT22;23904;52.322;10.232;2023-07-31T14:32:52;20.20;99.90
38090;DHT22;23904;52.322;10.232;2023-07-31T14:35:17;20.30;99.90
38090;DHT22;23904;52.322;10.232;2023-07-31T14:37:44;20.20;99.90
38090;DHT22;23904;52.322;10.232;2023-07-31T14:40:11;20.20;99.90
38090;DHT22;23904;52.322;10.232;2023-07-31T14:42:39;20.20;99.90
38090;DHT22;23904;52.322;10.232;2023-07-31T14:45:06;20.20;99.90
38090;DHT22;23904;52.322;10.232;2023-07-31T14:47:32;20.20;99.90
38090;DHT22;23904;52.322;10.232;2023-07-31T14:49:59;20.40;99.90
38090;DHT22;23904;52.322;10.232;2023-07-31T14:52:25;20.40;99.90
38090;DHT22;23904;52.322;10.232;2023-07-31T14:54:51;20.60;99.90
38090;DHT22;23904;52.322;10.232;2023-07-31T14:57:16;20.60;99.90
38090;DHT22;23904;52.322;10.232;2023-07-31T14:59:42;20.70;99.90
38090;DHT22;23904;52.322;10.232;2023-07-31T15:02:11;20.80;99.90
38090;DHT22;23904;52.322;10.232;2023-07-31T15:04:37;20.70;99.90
38090;DHT22;23904;52.322;10.232;2023-07-31T15:07:03;20.50;99.90
38090;DHT22;23904;52.322;10.232;2023-07-31T15:09:29;20.30;99.90
38090;DHT22;23904;52.322;10.232;2023-07-31T15:11:56;20.30;99.90
38090;DHT22;23904;52.322;10.232;2023-07-31T15:14:22;20.30;99.90
38090;DHT22;23904;52.322;10.232;2023-07-31T15:16:48;20.20;99.90
38090;DHT22;23904;52.322;10.232;2023-07-31T15:19:14;20.10;99.90
38090;DHT22;23904;52.322;10.232;2023-07-31T15:21:40;20.10;99.90
38090;DHT22;23904;52.322;10.232;2023-07-31T15:24:06;20.10;99.90
38090;DHT22;23904;52.322;10.232;2023-07-31T15:26:32;20.20;99.90
38090;DHT22;23904;52.322;10.232;2023-07-31T15:29:03;20.10;99.90